createdAt,value
2022-09-26T00:00:57.908Z,1.20
2022-09-26T00:01:57.956Z,1.10
2022-09-26T00:02:57.919Z,1.00
2022-09-26T00:03:57.807Z,1.40
2022-09-26T00:04:57.835Z,1.30
2022-09-26T00:05:57.946Z,1.20
2022-09-26T00:06:57.808Z,1.20
2022-09-26T00:07:57.753Z,1.00
2022-09-26T00:08:57.766Z,1.10
2022-09-26T00:09:57.775Z,1.40
2022-09-26T00:10:57.766Z,1.10
2022-09-26T00:11:57.899Z,1.10
2022-09-26T00:12:57.799Z,1.10
2022-09-26T00:13:57.650Z,1.10
2022-09-26T00:14:57.773Z,0.80
2022-09-26T00:15:57.646Z,1.10
2022-09-26T00:16:57.751Z,1.20
2022-09-26T00:17:57.702Z,1.20
2022-09-26T00:18:57.662Z,1.20
2022-09-26T00:19:57.648Z,1.30
2022-09-26T00:20:57.597Z,1.40
2022-09-26T00:21:57.569Z,1.10
2022-09-26T00:22:57.590Z,1.20
2022-09-26T00:23:57.691Z,1.20
2022-09-26T00:24:57.640Z,1.00
2022-09-26T00:25:57.512Z,1.10
2022-09-26T00:26:57.494Z,1.30
2022-09-26T00:27:57.545Z,1.30
2022-09-26T00:28:57.488Z,1.20
2022-09-26T00:29:57.554Z,1.70
2022-09-26T00:30:57.552Z,1.30
2022-09-26T00:31:57.486Z,1.20
2022-09-26T00:32:57.474Z,1.30
2022-09-26T00:33:57.473Z,1.30
2022-09-26T00:34:57.490Z,1.20
2022-09-26T00:35:57.472Z,1.50
2022-09-26T00:36:57.517Z,1.10
2022-09-26T00:37:57.393Z,1.10
2022-09-26T00:38:57.366Z,1.20
2022-09-26T00:39:57.445Z,1.10
2022-09-26T00:40:57.490Z,1.20
2022-09-26T00:41:57.544Z,1.00
2022-09-26T00:42:57.424Z,1.20
2022-09-26T00:43:57.383Z,1.20
2022-09-26T00:44:57.334Z,1.50
2022-09-26T00:45:57.342Z,1.30
2022-09-26T00:46:57.380Z,1.20
2022-09-26T00:47:57.256Z,1.30
2022-09-26T00:48:57.230Z,1.10
2022-09-26T00:49:57.375Z,1.30
2022-09-26T00:50:57.316Z,1.20
2022-09-26T00:51:57.217Z,1.30
2022-09-26T00:52:57.195Z,1.40
2022-09-26T00:53:57.238Z,1.30
2022-09-26T00:54:57.163Z,1.30
2022-09-26T00:55:57.142Z,1.20
2022-09-26T00:56:57.195Z,1.20
2022-09-26T00:57:57.103Z,1.30
2022-09-26T00:58:57.153Z,1.60
2022-09-26T00:59:57.130Z,1.20
2022-09-26T01:00:57.356Z,1.50
2022-09-26T01:01:57.332Z,1.50
2022-09-26T01:02:57.108Z,1.30
2022-09-26T01:03:57.038Z,1.30
2022-09-26T01:04:57.075Z,1.40
2022-09-26T01:05:57.009Z,1.10
2022-09-26T01:06:57.034Z,1.40
2022-09-26T01:07:56.952Z,1.30
2022-09-26T01:08:57.006Z,1.50
2022-09-26T01:09:57.074Z,1.50
2022-09-26T01:10:57.004Z,1.30
2022-09-26T01:11:57.012Z,1.50
2022-09-26T01:12:56.894Z,1.50
2022-09-26T01:13:56.937Z,1.50
2022-09-26T01:14:56.912Z,1.30
2022-09-26T01:15:56.912Z,1.50
2022-09-26T01:16:56.937Z,1.40
2022-09-26T01:17:56.846Z,1.40
2022-09-26T01:18:56.845Z,1.60
2022-09-26T01:19:56.784Z,1.60
2022-09-26T01:20:57.016Z,1.60
2022-09-26T01:21:56.875Z,1.50
2022-09-26T01:22:56.932Z,1.70
2022-09-26T01:23:56.774Z,1.70
2022-09-26T01:24:56.778Z,1.60
2022-09-26T01:25:56.847Z,1.40
2022-09-26T01:26:56.725Z,1.50
2022-09-26T01:27:56.816Z,1.50
2022-09-26T01:28:56.762Z,1.50
2022-09-26T01:29:56.761Z,1.60
2022-09-26T01:30:56.791Z,1.40
2022-09-26T01:31:56.731Z,1.40
2022-09-26T01:32:56.789Z,1.70
2022-09-26T01:33:56.707Z,1.50
2022-09-26T01:34:56.593Z,1.70
2022-09-26T01:35:56.736Z,1.30
2022-09-26T01:36:56.663Z,1.70
2022-09-26T01:37:56.844Z,1.70
2022-09-26T01:38:56.631Z,1.90
2022-09-26T01:39:56.547Z,1.60
2022-09-26T01:40:56.648Z,1.80
2022-09-26T01:41:56.542Z,1.50
2022-09-26T01:42:56.603Z,1.70
2022-09-26T01:43:56.495Z,1.90
2022-09-26T01:44:56.510Z,1.60
2022-09-26T01:45:56.799Z,1.60
2022-09-26T01:46:56.507Z,1.80
2022-09-26T01:47:56.462Z,1.40
2022-09-26T01:48:56.578Z,1.60
2022-09-26T01:49:56.624Z,1.70
2022-09-26T01:50:56.419Z,1.90
2022-09-26T01:51:56.402Z,1.50
2022-09-26T01:52:56.449Z,1.60
2022-09-26T01:53:56.518Z,1.80
2022-09-26T01:54:56.447Z,1.70
2022-09-26T01:55:56.653Z,1.50
2022-09-26T01:56:56.346Z,1.70
2022-09-26T01:57:56.408Z,1.90
2022-09-26T01:58:56.327Z,1.90
2022-09-26T01:59:56.411Z,1.60
2022-09-26T02:00:56.318Z,1.70
2022-09-26T02:01:56.336Z,1.70
2022-09-26T02:02:56.298Z,1.70
2022-09-26T02:03:56.359Z,1.80
2022-09-26T02:04:56.239Z,1.80
2022-09-26T02:05:56.385Z,2.00
2022-09-26T02:06:56.208Z,1.70
2022-09-26T02:07:56.177Z,1.60
2022-09-26T02:08:56.177Z,1.80
2022-09-26T02:09:56.093Z,1.70
2022-09-26T02:10:56.132Z,1.90
2022-09-26T02:11:56.119Z,2.00
2022-09-26T02:12:56.075Z,2.10
2022-09-26T02:13:56.089Z,1.90
2022-09-26T02:14:56.069Z,2.00
2022-09-26T02:15:56.176Z,2.10
2022-09-26T02:16:56.131Z,2.20
2022-09-26T02:17:56.116Z,2.00
2022-09-26T02:18:56.021Z,1.80
2022-09-26T02:19:56.054Z,1.80
2022-09-26T02:20:56.013Z,1.90
2022-09-26T02:21:55.986Z,2.10
2022-09-26T02:22:56.024Z,2.10
2022-09-26T02:23:56.043Z,1.90
2022-09-26T02:24:55.952Z,2.00
2022-09-26T02:25:56.012Z,1.80
2022-09-26T02:26:56.045Z,1.70
2022-09-26T02:27:55.870Z,2.40
2022-09-26T02:28:55.883Z,2.10
2022-09-26T02:29:55.932Z,2.10
2022-09-26T02:30:56.002Z,2.00
2022-09-26T02:31:56.117Z,2.20
2022-09-26T02:32:55.907Z,1.80
2022-09-26T02:33:55.836Z,2.10
2022-09-26T02:34:55.793Z,1.70
2022-09-26T02:35:55.884Z,1.80
2022-09-26T02:36:55.800Z,2.20
2022-09-26T02:37:55.900Z,2.10
2022-09-26T02:38:55.840Z,1.80
2022-09-26T02:39:55.816Z,1.70
2022-09-26T02:40:55.826Z,2.00
2022-09-26T02:41:55.784Z,2.00
2022-09-26T02:42:55.898Z,1.80
2022-09-26T02:43:55.740Z,1.90
2022-09-26T02:44:55.853Z,2.10
2022-09-26T02:45:55.810Z,1.90
2022-09-26T02:46:55.709Z,1.70
2022-09-26T02:47:55.636Z,1.80
2022-09-26T02:48:55.616Z,2.00
2022-09-26T02:49:55.664Z,1.90
2022-09-26T02:50:55.653Z,2.20
2022-09-26T02:51:55.608Z,2.00
2022-09-26T02:52:55.630Z,2.00
2022-09-26T02:53:55.591Z,2.10
2022-09-26T02:54:55.624Z,1.80
2022-09-26T02:55:55.539Z,2.00
2022-09-26T02:56:55.637Z,1.90
2022-09-26T02:57:55.603Z,1.90
2022-09-26T02:58:55.480Z,1.90
2022-09-26T02:59:55.492Z,1.70
2022-09-26T03:00:55.605Z,1.80
2022-09-26T03:01:55.434Z,1.70
2022-09-26T03:02:55.505Z,1.80
2022-09-26T03:03:55.481Z,1.90
2022-09-26T03:04:55.638Z,1.70
2022-09-26T03:05:55.442Z,1.70
2022-09-26T03:06:55.450Z,1.70
2022-09-26T03:07:55.475Z,1.90
2022-09-26T03:08:55.436Z,1.50
2022-09-26T03:09:55.374Z,1.90
2022-09-26T03:10:55.463Z,1.80
2022-09-26T03:11:55.597Z,1.70
2022-09-26T03:12:55.336Z,1.70
2022-09-26T03:13:55.346Z,1.50
2022-09-26T03:14:58.574Z,1.60
2022-09-26T03:15:55.336Z,1.80
2022-09-26T03:16:55.398Z,1.70
2022-09-26T03:17:55.226Z,1.90
2022-09-26T03:18:55.245Z,2.00
2022-09-26T03:19:55.297Z,2.00
2022-09-26T03:20:55.297Z,1.60
2022-09-26T03:21:55.246Z,2.10
2022-09-26T03:22:55.196Z,2.10
2022-09-26T03:23:55.256Z,1.80
2022-09-26T03:24:55.206Z,2.00
2022-09-26T03:25:55.158Z,2.00
2022-09-26T03:26:55.313Z,1.80
2022-09-26T03:27:55.210Z,2.10
2022-09-26T03:28:55.077Z,1.80
2022-09-26T03:29:55.070Z,1.80
2022-09-26T03:30:55.184Z,1.80
2022-09-26T03:31:55.190Z,2.00
2022-09-26T03:32:55.061Z,2.00
2022-09-26T03:33:55.073Z,2.00
2022-09-26T03:34:55.090Z,1.90
2022-09-26T03:35:55.633Z,1.90
2022-09-26T03:36:54.993Z,2.00
2022-09-26T03:37:55.014Z,2.10
2022-09-26T03:38:55.116Z,2.20
2022-09-26T03:39:55.254Z,1.80
2022-09-26T03:40:55.035Z,1.70
2022-09-26T03:41:55.243Z,1.70
2022-09-26T03:42:55.011Z,1.80
2022-09-26T03:43:55.011Z,1.90
2022-09-26T03:44:54.877Z,2.00
2022-09-26T03:45:54.949Z,2.20
2022-09-26T03:46:54.874Z,2.30
2022-09-26T03:47:54.867Z,1.70
2022-09-26T03:48:54.848Z,1.80
2022-09-26T03:49:54.878Z,1.90
2022-09-26T03:50:54.885Z,2.10
2022-09-26T03:51:54.845Z,1.90
2022-09-26T03:52:55.015Z,2.40
2022-09-26T03:53:54.911Z,2.10
2022-09-26T03:54:54.845Z,2.10
2022-09-26T03:55:54.777Z,1.80
2022-09-26T03:56:54.903Z,1.90
2022-09-26T03:57:54.800Z,2.10
2022-09-26T03:58:54.760Z,2.20
2022-09-26T03:59:54.732Z,2.10
2022-09-26T04:00:54.757Z,2.10
2022-09-26T04:01:54.753Z,2.50
2022-09-26T04:02:54.700Z,2.10
2022-09-26T04:03:54.709Z,2.20
2022-09-26T04:04:54.759Z,2.00
2022-09-26T04:05:54.622Z,1.80
2022-09-26T04:06:54.657Z,2.60
2022-09-26T04:07:54.671Z,2.00
2022-09-26T04:08:57.336Z,2.10
2022-09-26T04:09:55.643Z,2.00
2022-09-26T04:10:54.641Z,2.40
2022-09-26T04:11:54.597Z,2.40
2022-09-26T04:12:54.661Z,2.40
2022-09-26T04:13:54.755Z,2.10
2022-09-26T04:14:54.524Z,2.30
2022-09-26T04:15:54.575Z,2.00
2022-09-26T04:16:54.458Z,2.00
2022-09-26T04:17:54.491Z,2.20
2022-09-26T04:18:54.493Z,2.30
2022-09-26T04:19:54.477Z,2.10
2022-09-26T04:20:54.402Z,2.20
2022-09-26T04:21:54.502Z,2.20
2022-09-26T04:22:54.395Z,2.20
2022-09-26T04:23:54.394Z,2.20
2022-09-26T04:24:54.482Z,2.40
2022-09-26T04:25:54.488Z,2.20
2022-09-26T04:26:54.326Z,2.10
2022-09-26T04:27:54.392Z,2.30
2022-09-26T04:28:54.352Z,2.20
2022-09-26T04:29:54.429Z,2.10
2022-09-26T04:30:54.796Z,2.30
2022-09-26T04:31:54.437Z,2.10
2022-09-26T04:32:54.507Z,2.30
2022-09-26T04:33:54.269Z,2.50
2022-09-26T04:34:54.368Z,2.30
2022-09-26T04:35:54.345Z,2.40
2022-09-26T04:36:54.231Z,2.40
2022-09-26T04:37:54.255Z,2.00
2022-09-26T04:38:54.201Z,2.20
2022-09-26T04:39:54.291Z,2.10
2022-09-26T04:40:54.287Z,2.50
2022-09-26T04:41:54.160Z,2.10
2022-09-26T04:42:54.155Z,2.30
2022-09-26T04:43:54.388Z,2.40
2022-09-26T04:44:54.207Z,2.40
2022-09-26T04:45:55.917Z,2.30
2022-09-26T04:46:54.251Z,2.00
2022-09-26T04:47:54.119Z,1.90
2022-09-26T04:48:54.222Z,2.50
2022-09-26T04:49:54.141Z,2.30
2022-09-26T04:50:54.299Z,2.40
2022-09-26T04:51:54.192Z,2.10
2022-09-26T04:52:54.036Z,2.30
2022-09-26T04:53:54.100Z,2.40
2022-09-26T04:54:53.966Z,2.30
2022-09-26T04:55:54.013Z,2.40
2022-09-26T04:56:54.039Z,2.20
2022-09-26T04:57:54.030Z,2.30
2022-09-26T04:58:53.932Z,2.10
2022-09-26T04:59:53.884Z,2.70
2022-09-26T05:00:53.946Z,2.50
2022-09-26T05:01:54.015Z,2.30
2022-09-26T05:02:53.909Z,2.50
2022-09-26T05:03:53.821Z,1.90
2022-09-26T05:04:53.918Z,2.30
2022-09-26T05:05:53.836Z,2.30
2022-09-26T05:06:53.826Z,2.30
2022-09-26T05:07:53.845Z,2.40
2022-09-26T05:08:53.874Z,2.50
2022-09-26T05:09:58.563Z,2.30
2022-09-26T05:10:53.745Z,2.60
2022-09-26T05:11:53.847Z,2.20
2022-09-26T05:12:53.815Z,2.40
2022-09-26T05:13:54.199Z,2.20
2022-09-26T05:14:53.698Z,2.90
2022-09-26T05:15:53.730Z,2.20
2022-09-26T05:16:53.812Z,2.20
2022-09-26T05:17:53.647Z,2.60
2022-09-26T05:18:53.801Z,2.50
2022-09-26T05:19:53.661Z,2.30
2022-09-26T05:20:53.637Z,2.70
2022-09-26T05:21:53.671Z,2.60
2022-09-26T05:22:53.735Z,2.80
2022-09-26T05:23:53.725Z,2.20
2022-09-26T05:24:53.697Z,2.30
2022-09-26T05:25:53.582Z,2.30
2022-09-26T05:26:53.612Z,2.30
2022-09-26T05:27:53.595Z,2.30
2022-09-26T05:28:53.561Z,2.60
2022-09-26T05:29:53.507Z,2.50
2022-09-26T05:30:53.533Z,2.40
2022-09-26T05:31:53.591Z,2.70
2022-09-26T05:32:53.502Z,2.40
2022-09-26T05:33:53.544Z,2.20
2022-09-26T05:34:53.416Z,2.60
2022-09-26T05:35:53.450Z,2.30
2022-09-26T05:36:53.490Z,2.50
2022-09-26T05:37:53.487Z,2.10
2022-09-26T05:38:53.514Z,2.40
2022-09-26T05:39:53.473Z,2.40
2022-09-26T05:40:53.502Z,2.50
2022-09-26T05:41:53.335Z,2.10
2022-09-26T05:42:53.387Z,2.40
2022-09-26T05:43:53.361Z,2.70
2022-09-26T05:44:53.354Z,2.50
2022-09-26T05:45:53.282Z,2.40
2022-09-26T05:46:53.462Z,2.50
2022-09-26T05:47:53.265Z,2.30
2022-09-26T05:48:53.473Z,2.80
2022-09-26T05:49:53.237Z,2.70
2022-09-26T05:50:53.214Z,2.30
2022-09-26T05:51:53.186Z,2.40
2022-09-26T05:52:53.161Z,2.40
2022-09-26T05:53:53.142Z,2.70
2022-09-26T05:54:53.101Z,2.80
2022-09-26T05:55:53.161Z,2.40
2022-09-26T05:56:53.073Z,2.20
2022-09-26T05:57:53.148Z,2.50
2022-09-26T05:58:53.040Z,2.30
2022-09-26T05:59:53.084Z,2.40
2022-09-26T06:00:53.230Z,2.70
2022-09-26T06:01:53.304Z,2.20
2022-09-26T06:02:53.296Z,2.20
2022-09-26T06:03:53.453Z,2.80
2022-09-26T06:04:53.152Z,2.70
2022-09-26T06:05:53.190Z,2.10
2022-09-26T06:06:53.129Z,2.60
2022-09-26T06:07:53.059Z,2.30
2022-09-26T06:08:53.231Z,2.10
2022-09-26T06:09:53.010Z,2.20
2022-09-26T06:10:53.031Z,2.40
2022-09-26T06:11:52.930Z,2.60
2022-09-26T06:12:53.137Z,2.30
2022-09-26T06:13:52.933Z,2.30
2022-09-26T06:14:52.906Z,2.30
2022-09-26T06:15:52.999Z,2.10
2022-09-26T06:16:53.041Z,2.20
2022-09-26T06:17:52.913Z,2.10
2022-09-26T06:18:52.869Z,2.10
2022-09-26T06:19:52.942Z,2.10
2022-09-26T06:20:52.963Z,2.20
2022-09-26T06:21:52.875Z,2.50
2022-09-26T06:22:52.916Z,2.10
2022-09-26T06:23:52.811Z,2.70
2022-09-26T06:24:52.786Z,1.90
2022-09-26T06:25:52.710Z,2.10
2022-09-26T06:26:52.682Z,2.20
2022-09-26T06:27:57.618Z,2.60
2022-09-26T06:28:53.757Z,2.30
2022-09-26T06:29:52.691Z,2.40
2022-09-26T06:30:52.848Z,2.50
2022-09-26T06:31:52.724Z,2.20
2022-09-26T06:32:52.788Z,2.20
2022-09-26T06:33:53.139Z,2.30
2022-09-26T06:34:52.834Z,2.00
2022-09-26T06:35:52.940Z,2.30
2022-09-26T06:36:52.580Z,2.30
2022-09-26T06:37:52.569Z,2.90
2022-09-26T06:38:52.608Z,2.40
2022-09-26T06:39:57.000Z,2.10
2022-09-26T06:40:53.797Z,2.20
2022-09-26T06:41:52.656Z,2.50
2022-09-26T06:42:52.498Z,2.30
2022-09-26T06:43:52.608Z,2.20
2022-09-26T06:44:52.832Z,2.20
2022-09-26T06:45:52.564Z,2.50
2022-09-26T06:46:52.535Z,2.60
2022-09-26T06:47:52.567Z,2.40
2022-09-26T06:48:52.820Z,2.40
2022-09-26T06:49:52.559Z,2.40
2022-09-26T06:50:52.479Z,2.60
2022-09-26T06:51:52.545Z,2.60
2022-09-26T06:52:52.399Z,2.40
2022-09-26T06:53:52.474Z,2.20
2022-09-26T06:54:52.446Z,2.30
2022-09-26T06:55:52.511Z,2.30
2022-09-26T06:56:52.336Z,2.00
2022-09-26T06:57:52.466Z,2.20
2022-09-26T06:58:52.391Z,2.30
2022-09-26T06:59:52.401Z,2.60
2022-09-26T07:00:52.389Z,2.30
2022-09-26T07:01:52.461Z,2.20
2022-09-26T07:02:52.286Z,2.70
2022-09-26T07:03:54.470Z,1.90
2022-09-26T07:04:52.287Z,2.70
2022-09-26T07:05:52.308Z,2.20
2022-09-26T07:06:52.259Z,2.10
2022-09-26T07:07:52.279Z,2.30
2022-09-26T07:09:02.074Z,2.30
2022-09-26T07:09:53.301Z,2.00
2022-09-26T07:10:52.204Z,2.40
2022-09-26T07:12:13.571Z,2.30
2022-09-26T07:12:53.474Z,1.90
2022-09-26T07:13:52.205Z,2.00
2022-09-26T07:14:53.819Z,2.30
2022-09-26T07:15:52.302Z,2.10
2022-09-26T07:16:52.189Z,2.30
2022-09-26T07:17:52.071Z,2.00
2022-09-26T07:18:52.291Z,2.10
2022-09-26T07:19:52.138Z,2.40
2022-09-26T07:20:56.470Z,2.20
2022-09-26T07:21:52.105Z,2.20
2022-09-26T07:22:51.977Z,1.90
2022-09-26T07:23:52.163Z,2.00
2022-09-26T07:24:52.052Z,2.10
2022-09-26T07:25:52.242Z,2.30
2022-09-26T07:26:51.935Z,2.00
2022-09-26T07:27:51.967Z,1.90
2022-09-26T07:28:54.742Z,2.00
2022-09-26T07:29:51.958Z,2.20
2022-09-26T07:30:51.997Z,1.90
2022-09-26T07:31:51.988Z,2.20
2022-09-26T07:32:51.911Z,1.90
2022-09-26T07:33:51.879Z,1.90
2022-09-26T07:34:51.834Z,2.00
2022-09-26T07:35:51.954Z,2.10
2022-09-26T07:36:51.878Z,2.00
2022-09-26T07:37:51.825Z,2.20
2022-09-26T07:38:51.815Z,2.10
2022-09-26T07:39:54.732Z,2.10
2022-09-26T07:40:51.819Z,2.20
2022-09-26T07:41:51.743Z,1.80
2022-09-26T07:43:15.201Z,1.70
2022-09-26T07:44:45.968Z,1.70
2022-09-26T07:45:21.025Z,1.90
2022-09-26T07:45:52.671Z,1.80
2022-09-26T07:46:51.776Z,1.60
2022-09-26T07:47:51.794Z,1.90
2022-09-26T07:48:51.808Z,1.80
2022-09-26T07:49:51.674Z,1.70
2022-09-26T07:50:51.685Z,1.90
2022-09-26T07:51:51.666Z,1.80
2022-09-26T07:52:51.648Z,2.20
2022-09-26T07:53:51.665Z,1.70
2022-09-26T07:54:51.592Z,1.70
2022-09-26T07:55:51.663Z,1.60
2022-09-26T07:56:51.600Z,1.80
2022-09-26T07:57:51.528Z,1.80
2022-09-26T07:58:51.681Z,1.70
2022-09-26T07:59:51.761Z,1.50
2022-09-26T08:00:51.592Z,1.30
2022-09-26T08:01:51.479Z,1.50
2022-09-26T08:02:51.555Z,1.70
2022-09-26T08:03:51.480Z,1.50
2022-09-26T08:04:51.460Z,1.40
2022-09-26T08:05:51.564Z,1.70
2022-09-26T08:06:51.424Z,1.60
2022-09-26T08:07:51.596Z,1.50
2022-09-26T08:08:51.546Z,1.40
2022-09-26T08:09:51.404Z,1.40
2022-09-26T08:10:51.339Z,1.60
2022-09-26T08:11:51.384Z,1.70
2022-09-26T08:12:51.372Z,1.50
2022-09-26T08:13:51.340Z,1.60
2022-09-26T08:14:51.522Z,1.40
2022-09-26T08:15:51.377Z,1.70
2022-09-26T08:16:51.310Z,1.40
2022-09-26T08:17:51.367Z,1.50
2022-09-26T08:18:51.422Z,1.40
2022-09-26T08:19:51.290Z,1.60
2022-09-26T08:20:51.256Z,1.40
2022-09-26T08:21:51.297Z,1.50
2022-09-26T08:22:51.219Z,1.60
2022-09-26T08:23:51.215Z,1.30
2022-09-26T08:24:51.213Z,1.30
2022-09-26T08:25:51.208Z,1.40
2022-09-26T08:26:51.176Z,1.10
2022-09-26T08:27:51.135Z,1.30
2022-09-26T08:28:51.190Z,1.80
2022-09-26T08:29:51.134Z,1.70
2022-09-26T08:30:51.197Z,1.60
2022-09-26T08:31:51.125Z,1.50
2022-09-26T08:32:51.078Z,1.40
2022-09-26T08:33:51.029Z,1.50
2022-09-26T08:34:51.078Z,1.40
2022-09-26T08:35:51.146Z,1.30
2022-09-26T08:36:51.130Z,1.40
2022-09-26T08:37:50.977Z,1.40
2022-09-26T08:38:51.204Z,1.50
2022-09-26T08:39:50.967Z,1.50
2022-09-26T08:40:51.154Z,1.50
2022-09-26T08:41:50.951Z,1.50
2022-09-26T08:42:50.929Z,1.10
2022-09-26T08:43:50.899Z,1.10
2022-09-26T08:44:51.079Z,1.60
2022-09-26T08:45:51.091Z,1.50
2022-09-26T08:46:51.065Z,1.50
2022-09-26T08:47:50.951Z,1.60
2022-09-26T08:48:50.932Z,1.20
2022-09-26T08:49:50.854Z,1.50
2022-09-26T08:50:50.910Z,1.50
2022-09-26T08:51:50.855Z,1.50
2022-09-26T08:52:50.785Z,1.40
2022-09-26T08:53:50.976Z,1.40
2022-09-26T08:54:50.813Z,1.50
2022-09-26T08:55:50.766Z,1.60
2022-09-26T08:56:50.743Z,1.20
2022-09-26T08:57:50.916Z,1.50
2022-09-26T08:58:50.717Z,1.40
2022-09-26T08:59:50.792Z,1.50
2022-09-26T09:00:50.801Z,1.60
2022-09-26T09:01:50.785Z,1.50
2022-09-26T09:02:50.716Z,1.40
2022-09-26T09:03:50.736Z,1.40
2022-09-26T09:04:53.951Z,1.60
2022-09-26T09:05:50.649Z,1.40
2022-09-26T09:06:50.742Z,1.60
2022-09-26T09:07:50.639Z,1.50
2022-09-26T09:08:50.700Z,1.90
2022-09-26T09:09:50.661Z,1.40
2022-09-26T09:10:50.764Z,1.50
2022-09-26T09:11:51.353Z,1.60
2022-09-26T09:12:50.592Z,1.80
2022-09-26T09:13:50.639Z,1.30
2022-09-26T09:15:07.676Z,1.60
2022-09-26T09:15:51.564Z,1.50
2022-09-26T09:16:50.453Z,1.60
2022-09-26T09:17:50.571Z,1.50
2022-09-26T09:18:50.528Z,1.50
2022-09-26T09:19:50.454Z,1.60
2022-09-26T09:20:50.833Z,1.70
2022-09-26T09:21:50.487Z,1.50
2022-09-26T09:22:50.431Z,1.50
2022-09-26T09:23:50.421Z,1.70
2022-09-26T09:24:50.409Z,1.10
2022-09-26T09:25:50.647Z,1.60
2022-09-26T09:27:53.174Z,1.50
2022-09-26T09:28:50.400Z,1.20
2022-09-26T09:29:50.320Z,1.20
2022-09-26T09:30:50.421Z,1.60
2022-09-26T09:31:50.427Z,1.70
2022-09-26T09:32:50.325Z,1.10
2022-09-26T09:33:50.372Z,1.40
2022-09-26T09:34:53.642Z,1.30
2022-09-26T09:35:50.262Z,1.20
2022-09-26T09:36:50.420Z,1.30
2022-09-26T09:37:50.254Z,1.20
2022-09-26T09:38:50.298Z,1.40
2022-09-26T09:39:50.215Z,1.30
2022-09-26T09:40:50.248Z,1.30
2022-09-26T09:41:50.200Z,1.30
2022-09-26T09:42:50.104Z,1.30
2022-09-26T09:43:50.094Z,1.20
2022-09-26T09:44:50.111Z,1.10
2022-09-26T09:45:50.190Z,1.20
2022-09-26T09:46:50.248Z,1.00
2022-09-26T09:47:50.102Z,1.40
2022-09-26T09:48:50.391Z,1.10
2022-09-26T09:49:50.228Z,1.30
2022-09-26T09:50:50.141Z,1.30
2022-09-26T09:51:50.001Z,1.00
2022-09-26T09:52:50.091Z,1.30
2022-09-26T09:53:50.050Z,1.40
2022-09-26T09:54:50.098Z,1.50
2022-09-26T09:55:49.965Z,1.50
2022-09-26T09:56:49.940Z,1.70
2022-09-26T09:57:49.999Z,1.30
2022-09-26T09:58:50.055Z,1.30
2022-09-26T09:59:49.984Z,1.40
2022-09-26T10:00:51.376Z,1.60
2022-09-26T10:01:49.889Z,1.70
2022-09-26T10:02:50.017Z,1.50
2022-09-26T10:03:49.902Z,1.30
2022-09-26T10:04:49.855Z,1.60
2022-09-26T10:05:49.887Z,1.60
2022-09-26T10:06:49.777Z,1.90
2022-09-26T10:07:49.847Z,1.40
2022-09-26T10:08:49.840Z,1.50
2022-09-26T10:09:49.869Z,1.50
2022-09-26T10:10:49.888Z,1.50
2022-09-26T10:11:52.616Z,2.00
2022-09-26T10:12:49.779Z,1.60
2022-09-26T10:13:49.782Z,1.40
2022-09-26T10:14:49.773Z,1.40
2022-09-26T10:15:49.725Z,1.50
2022-09-26T10:16:49.753Z,1.50
2022-09-26T10:18:12.743Z,1.70
2022-09-26T10:18:50.683Z,1.60
2022-09-26T10:19:49.656Z,1.60
2022-09-26T10:20:49.749Z,1.60
2022-09-26T10:21:49.773Z,1.50
2022-09-26T10:22:49.628Z,1.40
2022-09-26T10:23:49.673Z,1.50
2022-09-26T10:24:49.705Z,1.40
2022-09-26T10:25:49.636Z,1.40
2022-09-26T10:26:49.767Z,1.30
2022-09-26T10:27:49.588Z,1.40
2022-09-26T10:28:49.509Z,1.40
2022-09-26T10:29:49.544Z,1.40
2022-09-26T10:30:49.660Z,1.50
2022-09-26T10:31:49.519Z,1.50
2022-09-26T10:32:54.038Z,1.60
2022-09-26T10:33:50.488Z,1.40
2022-09-26T10:34:49.641Z,1.30
2022-09-26T10:35:49.783Z,1.40
2022-09-26T10:36:49.578Z,1.40
2022-09-26T10:37:49.523Z,1.70
2022-09-26T10:38:49.395Z,1.50
2022-09-26T10:39:49.517Z,1.50
2022-09-26T10:40:49.907Z,1.40
2022-09-26T10:41:53.091Z,1.30
2022-09-26T10:42:50.659Z,1.40
2022-09-26T10:43:49.607Z,1.40
2022-09-26T10:44:52.894Z,1.50
2022-09-26T10:45:49.701Z,1.90
2022-09-26T10:46:49.334Z,1.50
2022-09-26T10:47:49.431Z,1.40
2022-09-26T10:48:49.355Z,1.50
2022-09-26T10:49:49.263Z,1.70
2022-09-26T10:50:49.238Z,1.50
2022-09-26T10:51:49.225Z,1.40
2022-09-26T10:52:49.221Z,1.90
2022-09-26T10:53:49.563Z,1.40
2022-09-26T10:54:50.429Z,1.40
2022-09-26T10:55:49.460Z,1.60
2022-09-26T10:56:49.290Z,1.60
2022-09-26T10:57:49.325Z,1.50
2022-09-26T10:58:49.189Z,1.40
2022-09-26T10:59:49.115Z,1.50
2022-09-26T11:00:49.403Z,1.40
2022-09-26T11:01:49.206Z,1.60
2022-09-26T11:02:49.115Z,1.90
2022-09-26T11:03:49.269Z,1.70
2022-09-26T11:04:49.180Z,1.30
2022-09-26T11:05:49.137Z,1.70
2022-09-26T11:06:49.150Z,1.60
2022-09-26T11:07:49.076Z,1.60
2022-09-26T11:08:48.975Z,1.40
2022-09-26T11:09:48.984Z,1.60
2022-09-26T11:10:49.045Z,1.90
2022-09-26T11:11:49.064Z,1.80
2022-09-26T11:12:48.974Z,1.60
2022-09-26T11:13:48.957Z,1.50
2022-09-26T11:14:49.034Z,1.60
2022-09-26T11:15:49.115Z,1.40
2022-09-26T11:16:49.056Z,1.70
2022-09-26T11:17:48.981Z,1.40
2022-09-26T11:18:48.854Z,1.40
2022-09-26T11:19:53.791Z,1.50
2022-09-26T11:20:49.866Z,1.40
2022-09-26T11:21:48.821Z,1.60
2022-09-26T11:22:48.908Z,1.40
2022-09-26T11:23:48.912Z,1.30
2022-09-26T11:24:49.629Z,1.50
2022-09-26T11:25:48.920Z,1.50
2022-09-26T11:26:48.881Z,1.40
2022-09-26T11:27:49.119Z,1.30
2022-09-26T11:28:48.913Z,1.40
2022-09-26T11:29:48.978Z,1.50
2022-09-26T11:30:49.049Z,1.80
2022-09-26T11:31:48.759Z,1.30
2022-09-26T11:32:48.824Z,1.50
2022-09-26T11:33:48.737Z,1.50
2022-09-26T11:34:49.106Z,1.50
2022-09-26T11:35:48.741Z,1.30
2022-09-26T11:36:49.026Z,1.50
2022-09-26T11:37:48.730Z,1.50
2022-09-26T11:38:48.753Z,1.50
2022-09-26T11:39:48.572Z,1.10
2022-09-26T11:40:48.931Z,1.30
2022-09-26T11:41:49.360Z,1.40
2022-09-26T11:42:48.611Z,1.40
2022-09-26T11:43:48.567Z,1.30
2022-09-26T11:44:48.705Z,1.40
2022-09-26T11:45:48.744Z,1.50
2022-09-26T11:46:48.678Z,1.50
2022-09-26T11:47:49.053Z,1.60
2022-09-26T11:48:48.598Z,1.40
2022-09-26T11:49:48.727Z,1.20
2022-09-26T11:50:48.509Z,1.20
2022-09-26T11:51:48.446Z,1.30
2022-09-26T11:52:49.513Z,1.50
2022-09-26T11:53:48.429Z,1.50
2022-09-26T11:54:48.492Z,1.50
2022-09-26T11:55:48.577Z,1.70
2022-09-26T11:56:49.003Z,1.40
2022-09-26T11:57:48.693Z,1.20
2022-09-26T11:58:48.499Z,1.40
2022-09-26T11:59:48.813Z,1.30
2022-09-26T12:00:48.622Z,1.40
2022-09-26T12:01:48.492Z,1.20
2022-09-26T12:02:48.856Z,1.30
2022-09-26T12:03:48.823Z,1.40
2022-09-26T12:04:48.264Z,1.30
2022-09-26T12:05:48.319Z,1.20
2022-09-26T12:06:48.388Z,1.20
2022-09-26T12:07:48.537Z,1.20
2022-09-26T12:08:48.289Z,1.50
2022-09-26T12:09:48.504Z,1.10
2022-09-26T12:10:48.255Z,1.30
2022-09-26T12:11:48.214Z,1.50
2022-09-26T12:12:48.370Z,1.50
2022-09-26T12:13:48.656Z,1.30
2022-09-26T12:14:48.691Z,1.20
2022-09-26T12:15:48.319Z,1.30
2022-09-26T12:16:48.106Z,1.10
2022-09-26T12:17:48.123Z,1.50
2022-09-26T12:18:48.267Z,1.50
2022-09-26T12:19:48.294Z,1.20
2022-09-26T12:20:48.765Z,1.60
2022-09-26T12:21:48.155Z,1.20
2022-09-26T12:22:48.172Z,1.30
2022-09-26T12:23:48.279Z,1.20
2022-09-26T12:24:48.194Z,1.20
2022-09-26T12:25:48.019Z,1.30
2022-09-26T12:26:48.017Z,1.30
2022-09-26T12:27:47.977Z,1.40
2022-09-26T12:28:47.985Z,1.60
2022-09-26T12:29:48.129Z,1.20
2022-09-26T12:30:47.940Z,1.30
2022-09-26T12:31:47.965Z,1.00
2022-09-26T12:32:48.415Z,1.20
2022-09-26T12:33:47.935Z,1.10
2022-09-26T12:34:47.864Z,1.20
2022-09-26T12:35:48.002Z,1.20
2022-09-26T12:36:48.105Z,1.30
2022-09-26T12:37:47.838Z,1.00
2022-09-26T12:38:47.791Z,1.10
2022-09-26T12:39:47.859Z,1.20
2022-09-26T12:40:47.865Z,0.90
2022-09-26T12:41:47.746Z,1.00
2022-09-26T12:42:47.951Z,1.00
2022-09-26T12:43:47.929Z,1.10
2022-09-26T12:44:47.742Z,1.20
2022-09-26T12:45:53.037Z,0.80
2022-09-26T12:46:48.721Z,1.00
2022-09-26T12:47:47.784Z,0.80
2022-09-26T12:48:47.723Z,0.90
2022-09-26T12:49:48.096Z,1.00
2022-09-26T12:50:47.746Z,1.10
2022-09-26T12:51:47.714Z,1.00
2022-09-26T12:52:48.059Z,1.10
2022-09-26T12:53:47.598Z,1.00
2022-09-26T12:54:48.083Z,0.90
2022-09-26T12:55:47.594Z,1.10
2022-09-26T12:56:47.616Z,1.30
2022-09-26T12:57:47.606Z,0.70
2022-09-26T12:58:47.760Z,1.00
2022-09-26T12:59:47.526Z,0.90
2022-09-26T13:00:47.615Z,0.90
2022-09-26T13:01:47.648Z,0.90
2022-09-26T13:02:47.560Z,0.90
2022-09-26T13:03:47.704Z,0.80
2022-09-26T13:04:47.573Z,1.00
2022-09-26T13:05:47.496Z,1.10
2022-09-26T13:07:07.626Z,0.90
2022-09-26T13:07:48.583Z,0.70
2022-09-26T13:08:47.452Z,0.90
2022-09-26T13:09:47.423Z,1.00
2022-09-26T13:10:47.460Z,1.00
2022-09-26T13:11:47.602Z,0.90
2022-09-26T13:12:47.557Z,0.90
2022-09-26T13:13:47.592Z,0.80
2022-09-26T13:14:47.352Z,0.70
2022-09-26T13:15:47.557Z,0.90
2022-09-26T13:16:47.357Z,1.20
2022-09-26T13:17:47.254Z,1.10
2022-09-26T13:18:47.340Z,0.80
2022-09-26T13:19:47.268Z,0.90